createdAt,value
2017-04-04T00:00:19.747Z,38.03
2017-04-04T00:01:18.022Z,37.67
2017-04-04T00:02:17.106Z,47.97
2017-04-04T00:03:16.151Z,30.32
2017-04-04T00:04:14.414Z,37.97
2017-04-04T00:05:12.682Z,34.12
2017-04-04T00:06:11.019Z,45.72
2017-04-04T00:07:10.050Z,38.32
2017-04-04T00:08:08.397Z,33.15
2017-04-04T00:09:07.523Z,37.35
2017-04-04T00:10:05.789Z,35.60
2017-04-04T00:11:04.114Z,41.27
2017-04-04T00:12:02.466Z,41.30
2017-04-04T00:13:01.485Z,33.73
2017-04-04T00:13:59.750Z,29.38
2017-04-04T00:14:58.017Z,34.28
2017-04-04T00:15:56.340Z,30.07
2017-04-04T00:16:55.356Z,26.17
2017-04-04T00:17:53.691Z,25.43
2017-04-04T00:18:52.710Z,24.00
2017-04-04T00:19:50.974Z,28.00
2017-04-04T00:20:49.251Z,25.70
2017-04-04T00:21:47.513Z,23.78
2017-04-04T00:22:45.770Z,26.82
2017-04-04T00:23:44.106Z,25.22
2017-04-04T00:24:42.359Z,29.25
2017-04-04T00:25:40.665Z,26.50
2017-04-04T00:26:38.954Z,29.03
2017-04-04T00:27:37.200Z,25.08
2017-04-04T00:28:35.510Z,26.13
2017-04-04T00:29:34.613Z,24.58
2017-04-04T00:30:32.878Z,25.12
2017-04-04T00:31:31.203Z,32.58
2017-04-04T00:32:29.469Z,33.52
2017-04-04T00:33:27.762Z,26.53
2017-04-04T00:34:26.795Z,27.93
2017-04-04T00:35:25.165Z,28.72
2017-04-04T00:36:23.452Z,32.42
2017-04-04T00:37:22.486Z,33.03
2017-04-04T00:38:20.748Z,32.80
2017-04-04T00:39:19.006Z,31.40
2017-04-04T00:40:17.258Z,23.87
2017-04-04T00:41:15.614Z,28.48
2017-04-04T00:42:13.884Z,30.30
2017-04-04T00:43:12.902Z,26.62
2017-04-04T00:44:11.168Z,25.33
2017-04-04T00:45:09.497Z,30.70
2017-04-04T00:46:07.753Z,26.10
2017-04-04T00:47:06.155Z,35.58
2017-04-04T00:48:04.440Z,34.48
2017-04-04T00:49:02.807Z,43.33
2017-04-04T00:50:01.054Z,38.10
2017-04-04T00:50:59.310Z,32.78
2017-04-04T00:51:58.341Z,28.23
2017-04-04T00:52:57.705Z,31.53
2017-04-04T00:53:55.993Z,33.08
2017-04-04T00:54:54.283Z,36.02
2017-04-04T00:55:52.543Z,39.05
2017-04-04T00:56:50.813Z,42.75
2017-04-04T00:57:49.063Z,46.07
2017-04-04T00:58:48.178Z,44.87
2017-04-04T00:59:46.442Z,39.68
2017-04-04T01:00:44.725Z,32.17
2017-04-04T01:01:42.995Z,37.57
2017-04-04T01:02:41.248Z,46.43
2017-04-04T01:03:39.517Z,47.97
2017-04-04T01:04:37.845Z,38.97
2017-04-04T01:05:36.123Z,36.87
2017-04-04T01:06:34.383Z,33.33
2017-04-04T01:07:32.683Z,39.77
2017-04-04T01:08:30.946Z,39.52
2017-04-04T01:09:29.475Z,34.85
2017-04-04T01:10:27.845Z,33.80
2017-04-04T01:11:26.106Z,34.17
2017-04-04T01:12:25.156Z,37.60
2017-04-04T01:13:23.411Z,36.38
2017-04-04T01:14:22.451Z,24.68
2017-04-04T01:15:21.582Z,34.02
2017-04-04T01:16:19.925Z,28.10
2017-04-04T01:17:19.005Z,32.02
2017-04-04T01:18:17.302Z,26.98
2017-04-04T01:19:16.318Z,35.93
2017-04-04T01:20:14.597Z,31.35
2017-04-04T01:21:13.642Z,28.80
2017-04-04T01:22:11.970Z,28.40
2017-04-04T01:23:11.025Z,27.85
2017-04-04T01:24:10.061Z,25.62
2017-04-04T01:25:09.070Z,29.38
2017-04-04T01:26:07.322Z,30.93
2017-04-04T01:27:06.342Z,31.85
2017-04-04T01:28:04.663Z,29.90
2017-04-04T01:29:03.680Z,28.82
2017-04-04T01:30:01.985Z,26.35
2017-04-04T01:31:01.005Z,22.37
2017-04-04T01:31:59.997Z,29.55
2017-04-04T01:32:58.292Z,30.65
2017-04-04T01:33:56.631Z,27.98
2017-04-04T01:34:55.681Z,24.35
2017-04-04T01:35:53.981Z,27.23
2017-04-04T01:36:52.233Z,26.58
2017-04-04T01:37:51.269Z,27.07
2017-04-04T01:38:49.546Z,32.58
2017-04-04T01:39:48.129Z,26.63
2017-04-04T01:40:46.405Z,31.78
2017-04-04T01:41:45.687Z,42.63
2017-04-04T01:42:43.937Z,43.67
2017-04-04T01:43:42.957Z,30.48
2017-04-04T01:44:41.245Z,33.70
2017-04-04T01:45:40.463Z,28.00
2017-04-04T01:46:38.719Z,41.07
2017-04-04T01:47:37.087Z,27.98
2017-04-04T01:48:36.106Z,32.12
2017-04-04T01:49:35.123Z,35.28
2017-04-04T01:50:33.416Z,33.85
2017-04-04T01:51:31.747Z,29.05
2017-04-04T01:52:31.368Z,27.30
2017-04-04T01:53:30.401Z,27.90
2017-04-04T01:54:28.666Z,31.43
2017-04-04T01:55:26.930Z,31.93
2017-04-04T01:56:25.945Z,28.43
2017-04-04T01:57:24.557Z,21.80
2017-04-04T01:58:22.838Z,27.12
2017-04-04T01:59:21.081Z,33.58
2017-04-04T02:00:20.122Z,28.15
2017-04-04T02:01:18.494Z,32.20
2017-04-04T02:02:16.762Z,32.53
2017-04-04T02:03:15.113Z,30.58
2017-04-04T02:04:13.367Z,28.43
2017-04-04T02:05:12.414Z,33.60
2017-04-04T02:06:10.688Z,31.32
2017-04-04T02:07:09.729Z,28.68
2017-04-04T02:08:07.978Z,25.85
2017-04-04T02:09:07.122Z,32.30
2017-04-04T02:10:05.387Z,29.05
2017-04-04T02:11:03.648Z,28.53
2017-04-04T02:12:01.898Z,34.05
2017-04-04T02:13:00.147Z,24.10
2017-04-04T02:13:58.402Z,33.13
2017-04-04T02:14:56.747Z,27.23
2017-04-04T02:15:54.998Z,29.00
2017-04-04T02:16:53.288Z,29.37
2017-04-04T02:17:51.793Z,30.63
2017-04-04T02:18:50.056Z,32.07
2017-04-04T02:19:48.302Z,25.38
2017-04-04T02:20:46.633Z,28.48
2017-04-04T02:21:44.894Z,29.10
2017-04-04T02:22:43.934Z,27.18
2017-04-04T02:23:42.207Z,34.37
2017-04-04T02:24:40.473Z,27.07
2017-04-04T02:25:38.738Z,27.50
2017-04-04T02:26:37.334Z,29.12
2017-04-04T02:27:35.600Z,29.75
2017-04-04T02:28:33.889Z,30.80
2017-04-04T02:29:32.146Z,33.72
2017-04-04T02:30:30.405Z,26.58
2017-04-04T02:31:28.684Z,28.17
2017-04-04T02:32:28.017Z,35.38
2017-04-04T02:33:26.318Z,26.88
2017-04-04T02:34:24.584Z,24.20
2017-04-04T02:35:22.854Z,24.63
2017-04-04T02:36:21.109Z,29.43
2017-04-04T02:37:19.364Z,33.23
2017-04-04T02:38:17.684Z,28.92
2017-04-04T02:39:15.953Z,33.12
2017-04-04T02:40:15.020Z,34.80
2017-04-04T02:41:13.309Z,47.28
2017-04-04T02:42:11.556Z,35.90
2017-04-04T02:43:10.595Z,30.08
2017-04-04T02:44:09.752Z,34.07
2017-04-04T02:45:08.021Z,30.58
2017-04-04T02:46:06.317Z,26.33
2017-04-04T02:47:04.569Z,28.62
2017-04-04T02:48:02.830Z,29.72
2017-04-04T02:49:01.069Z,30.73
2017-04-04T02:49:59.401Z,31.70
2017-04-04T02:50:57.685Z,26.70
2017-04-04T02:51:56.726Z,25.03
2017-04-04T02:52:54.989Z,24.27
2017-04-04T02:53:54.018Z,28.60
2017-04-04T02:54:52.377Z,30.40
2017-04-04T02:55:51.467Z,27.20
2017-04-04T02:56:50.486Z,30.82
2017-04-04T02:57:49.539Z,31.60
2017-04-04T02:58:48.661Z,30.87
2017-04-04T02:59:46.993Z,38.03
2017-04-04T03:00:45.264Z,26.92
2017-04-04T03:01:43.611Z,34.27
2017-04-04T03:02:42.657Z,31.55
2017-04-04T03:03:40.910Z,25.08
2017-04-04T03:04:39.149Z,25.57
2017-04-04T03:05:37.405Z,29.93
2017-04-04T03:06:36.433Z,24.22
2017-04-04T03:07:34.816Z,29.53
2017-04-04T03:08:33.141Z,28.68
2017-04-04T03:09:31.392Z,31.00
2017-04-04T03:10:29.637Z,31.58
2017-04-04T03:11:27.893Z,26.05
2017-04-04T03:12:26.157Z,26.60
2017-04-04T03:13:24.607Z,28.62
2017-04-04T03:14:22.912Z,27.45
2017-04-04T03:15:21.159Z,27.02
2017-04-04T03:16:19.453Z,28.78
2017-04-04T03:17:17.709Z,27.20
2017-04-04T03:18:15.985Z,27.47
2017-04-04T03:19:14.305Z,27.85
2017-04-04T03:20:13.337Z,30.80
2017-04-04T03:21:11.598Z,31.53
2017-04-04T03:22:10.604Z,33.45
2017-04-04T03:23:08.865Z,30.43
2017-04-04T03:24:07.129Z,29.72
2017-04-04T03:25:06.361Z,23.55
2017-04-04T03:26:04.619Z,27.63
2017-04-04T03:27:03.652Z,27.82
2017-04-04T03:28:01.910Z,31.20
2017-04-04T03:29:00.171Z,31.52
2017-04-04T03:29:58.423Z,30.93
2017-04-04T03:30:56.790Z,30.93
2017-04-04T03:31:55.102Z,28.07
2017-04-04T03:32:53.367Z,25.42
2017-04-04T03:33:52.404Z,29.42
2017-04-04T03:34:50.690Z,29.27
2017-04-04T03:35:49.711Z,26.60
2017-04-04T03:36:48.047Z,23.52
2017-04-04T03:37:46.297Z,31.77
2017-04-04T03:38:44.562Z,28.30
2017-04-04T03:39:42.835Z,34.02
2017-04-04T03:40:41.111Z,25.58
2017-04-04T03:41:39.413Z,26.85
2017-04-04T03:42:38.810Z,29.32
2017-04-04T03:43:37.845Z,24.13
2017-04-04T03:44:36.893Z,27.07
2017-04-04T03:45:35.162Z,28.18
2017-04-04T03:46:33.428Z,28.45
2017-04-04T03:47:32.469Z,26.72
2017-04-04T03:48:30.829Z,30.97
2017-04-04T03:49:29.076Z,24.68
2017-04-04T03:50:27.363Z,37.42
2017-04-04T03:51:26.430Z,30.40
2017-04-04T03:52:24.701Z,25.78
2017-04-04T03:53:23.737Z,27.22
2017-04-04T03:54:22.376Z,29.73
2017-04-04T03:55:20.650Z,29.40
2017-04-04T03:56:18.976Z,31.55
2017-04-04T03:57:17.228Z,33.13
2017-04-04T03:58:15.594Z,32.10
2017-04-04T03:59:13.865Z,31.07
2017-04-04T04:00:12.202Z,29.37
2017-04-04T04:01:10.487Z,32.57
2017-04-04T04:02:09.566Z,31.90
2017-04-04T04:03:07.826Z,29.98
2017-04-04T04:04:06.102Z,39.78
2017-04-04T04:05:04.365Z,26.62
2017-04-04T04:06:02.738Z,32.15
2017-04-04T04:07:01.783Z,31.90
2017-04-04T04:08:00.054Z,33.95
2017-04-04T04:08:58.325Z,34.68
2017-04-04T04:09:56.574Z,27.13
2017-04-04T04:10:54.855Z,30.67
2017-04-04T04:11:54.000Z,26.80
2017-04-04T04:12:52.255Z,24.37
2017-04-04T04:13:50.506Z,37.25
2017-04-04T04:14:49.513Z,30.20
2017-04-04T04:15:47.786Z,26.13
2017-04-04T04:16:46.068Z,28.75
2017-04-04T04:17:44.408Z,29.08
2017-04-04T04:18:42.679Z,27.03
2017-04-04T04:19:40.942Z,30.18
2017-04-04T04:20:39.207Z,27.87
2017-04-04T04:21:37.460Z,34.40
2017-04-04T04:22:35.708Z,30.25
2017-04-04T04:23:34.838Z,26.58
2017-04-04T04:24:33.128Z,26.82
2017-04-04T04:25:32.189Z,24.72
2017-04-04T04:26:31.217Z,23.63
2017-04-04T04:27:29.482Z,25.65
2017-04-04T04:28:27.749Z,34.77
2017-04-04T04:29:26.077Z,30.58
2017-04-04T04:30:24.382Z,28.18
2017-04-04T04:31:23.501Z,32.45
2017-04-04T04:32:21.751Z,31.48
2017-04-04T04:33:20.013Z,31.18
2017-04-04T04:34:18.294Z,32.48
2017-04-04T04:35:16.709Z,28.37
2017-04-04T04:36:14.998Z,25.98
2017-04-04T04:37:13.273Z,25.48
2017-04-04T04:38:11.538Z,31.63
2017-04-04T04:39:09.797Z,26.88
2017-04-04T04:40:08.113Z,32.32
2017-04-04T04:41:07.252Z,29.65
2017-04-04T04:42:05.523Z,33.48
2017-04-04T04:43:03.810Z,31.12
2017-04-04T04:44:02.101Z,31.07
2017-04-04T04:45:00.360Z,28.87
2017-04-04T04:45:58.610Z,35.23
2017-04-04T04:46:56.985Z,24.73
2017-04-04T04:47:55.253Z,32.98
2017-04-04T04:48:53.506Z,29.02
2017-04-04T04:49:52.541Z,31.42
2017-04-04T04:50:50.814Z,36.18
2017-04-04T04:51:49.084Z,28.75
2017-04-04T04:52:47.479Z,30.83
2017-04-04T04:53:46.511Z,27.15
2017-04-04T04:54:44.773Z,34.10
2017-04-04T04:55:43.014Z,34.10
2017-04-04T04:56:41.275Z,37.35
2017-04-04T04:57:39.525Z,28.47
2017-04-04T04:58:37.862Z,32.30
2017-04-04T04:59:36.126Z,28.75
2017-04-04T05:00:34.427Z,26.92
2017-04-04T05:01:32.694Z,31.47
2017-04-04T05:02:30.965Z,31.78
2017-04-04T05:03:29.225Z,29.05
2017-04-04T05:04:27.609Z,35.68
2017-04-04T05:05:26.678Z,29.25
2017-04-04T05:06:25.706Z,33.22
2017-04-04T05:07:23.962Z,30.88
2017-04-04T05:08:22.280Z,35.53
2017-04-04T05:09:21.296Z,31.23
2017-04-04T05:10:19.646Z,33.07
2017-04-04T05:11:17.920Z,29.63
2017-04-04T05:12:16.950Z,24.97
2017-04-04T05:13:15.213Z,30.15
2017-04-04T05:14:13.471Z,30.80
2017-04-04T05:15:11.774Z,32.43
2017-04-04T05:16:10.133Z,32.18
2017-04-04T05:17:08.387Z,27.18
2017-04-04T05:18:07.398Z,26.57
2017-04-04T05:19:05.660Z,26.57
2017-04-04T05:20:04.045Z,30.03
2017-04-04T05:21:02.332Z,30.22
2017-04-04T05:22:00.973Z,25.35
2017-04-04T05:22:59.234Z,27.97
2017-04-04T05:23:57.504Z,34.15
2017-04-04T05:24:55.849Z,26.40
2017-04-04T05:25:54.146Z,28.43
2017-04-04T05:26:53.169Z,32.03
2017-04-04T05:27:51.401Z,38.78
2017-04-04T05:28:49.710Z,30.15
2017-04-04T05:29:48.728Z,33.93
2017-04-04T05:30:46.985Z,32.07
2017-04-04T05:31:45.254Z,27.48
2017-04-04T05:32:43.638Z,26.32
2017-04-04T05:33:41.916Z,31.37
2017-04-04T05:34:40.205Z,28.93
2017-04-04T05:35:39.340Z,31.17
2017-04-04T05:36:37.591Z,24.62
2017-04-04T05:37:35.858Z,31.85
2017-04-04T05:38:34.294Z,33.30
2017-04-04T05:39:33.043Z,29.62
2017-04-04T05:40:32.189Z,29.52
2017-04-04T05:41:31.311Z,29.58
2017-04-04T05:42:29.612Z,28.30
2017-04-04T05:43:27.953Z,29.65
2017-04-04T05:44:26.301Z,32.67
2017-04-04T05:45:24.606Z,34.37
2017-04-04T05:46:22.883Z,32.58
2017-04-04T05:47:21.167Z,29.35
2017-04-04T05:48:20.221Z,31.25
2017-04-04T05:49:18.495Z,37.98
2017-04-04T05:50:16.851Z,29.73
2017-04-04T05:51:15.108Z,29.98
2017-04-04T05:52:13.417Z,29.40
2017-04-04T05:53:11.683Z,35.93
2017-04-04T05:54:09.963Z,35.67
2017-04-04T05:55:08.238Z,32.53
2017-04-04T05:56:06.614Z,27.55
2017-04-04T05:57:04.861Z,32.55
2017-04-04T05:58:03.889Z,32.77
2017-04-04T05:59:02.899Z,32.87
2017-04-04T06:00:01.131Z,33.98
2017-04-04T06:00:59.393Z,28.58
2017-04-04T06:01:57.724Z,36.05
2017-04-04T06:02:55.978Z,34.75
2017-04-04T06:03:55.020Z,27.33
2017-04-04T06:04:54.068Z,27.93
2017-04-04T06:05:53.084Z,28.87
2017-04-04T06:06:52.115Z,29.60
2017-04-04T06:07:51.297Z,28.92
2017-04-04T06:08:50.378Z,33.15
2017-04-04T06:09:49.408Z,25.75
2017-04-04T06:10:47.667Z,29.13
2017-04-04T06:11:46.712Z,30.53
2017-04-04T06:12:44.991Z,27.63
2017-04-04T06:13:44.160Z,29.70
2017-04-04T06:14:42.418Z,34.57
2017-04-04T06:15:40.888Z,29.13
2017-04-04T06:16:39.937Z,34.33
2017-04-04T06:17:38.969Z,37.73
2017-04-04T06:18:38.158Z,34.95
2017-04-04T06:19:37.683Z,32.10
2017-04-04T06:20:36.191Z,31.88
2017-04-04T06:21:35.274Z,29.25
2017-04-04T06:22:34.342Z,30.87
2017-04-04T06:23:32.689Z,29.18
2017-04-04T06:24:30.945Z,32.33
2017-04-04T06:25:29.349Z,32.45
2017-04-04T06:26:27.603Z,29.80
2017-04-04T06:27:25.928Z,31.95
2017-04-04T06:28:24.190Z,23.17
2017-04-04T06:29:22.462Z,31.12
2017-04-04T06:30:21.498Z,31.68
2017-04-04T06:31:19.830Z,32.52
2017-04-04T06:32:18.944Z,31.73
2017-04-04T06:33:17.200Z,30.52
2017-04-04T06:34:15.454Z,28.07
2017-04-04T06:35:13.710Z,34.42
2017-04-04T06:36:11.952Z,31.78
2017-04-04T06:37:10.297Z,29.38
2017-04-04T06:38:08.561Z,32.20
2017-04-04T06:39:07.583Z,24.02
2017-04-04T06:40:05.854Z,32.12
2017-04-04T06:41:04.883Z,31.07
2017-04-04T06:42:03.157Z,33.28
2017-04-04T06:43:01.479Z,31.42
2017-04-04T06:44:00.494Z,30.32
2017-04-04T06:44:58.761Z,27.10
2017-04-04T06:45:57.054Z,29.50
2017-04-04T06:46:55.326Z,26.33
2017-04-04T06:47:53.683Z,30.15
2017-04-04T06:48:52.924Z,31.28
2017-04-04T06:49:51.210Z,29.97
2017-04-04T06:50:50.230Z,26.17
2017-04-04T06:51:48.560Z,24.52
2017-04-04T06:52:47.583Z,28.28
2017-04-04T06:53:45.847Z,30.28
2017-04-04T06:54:44.257Z,33.12
2017-04-04T06:55:42.523Z,29.02
2017-04-04T06:56:40.807Z,35.52
2017-04-04T06:57:39.089Z,33.90
2017-04-04T06:58:37.341Z,29.78
2017-04-04T06:59:35.590Z,29.57
2017-04-04T07:00:33.938Z,28.72
2017-04-04T07:01:32.189Z,34.78
2017-04-04T07:02:35.979Z,33.35
2017-04-04T07:03:34.291Z,31.08
2017-04-04T07:04:33.339Z,38.47
2017-04-04T07:05:32.384Z,33.90
2017-04-04T07:06:30.715Z,29.62
2017-04-04T07:07:29.786Z,26.75
2017-04-04T07:08:28.054Z,33.08
2017-04-04T07:09:26.335Z,35.45
2017-04-04T07:10:24.599Z,31.00
2017-04-04T07:11:22.862Z,31.53
2017-04-04T07:12:21.255Z,33.83
2017-04-04T07:13:20.319Z,37.97
2017-04-04T07:14:18.671Z,28.50
2017-04-04T07:15:16.935Z,33.12
2017-04-04T07:16:15.959Z,36.57
2017-04-04T07:17:14.244Z,31.30
2017-04-04T07:18:12.598Z,36.63
2017-04-04T07:19:10.969Z,34.38
2017-04-04T07:20:09.442Z,35.65
2017-04-04T07:21:07.718Z,30.42
2017-04-04T07:22:05.981Z,33.32
2017-04-04T07:23:04.242Z,32.80
2017-04-04T07:24:02.587Z,33.87
2017-04-04T07:25:00.878Z,37.25
2017-04-04T07:25:59.234Z,34.62
2017-04-04T07:26:57.517Z,34.25
2017-04-04T07:27:55.869Z,34.30
2017-04-04T07:28:54.216Z,33.85
2017-04-04T07:29:52.606Z,33.65
2017-04-04T07:30:50.879Z,34.45
2017-04-04T07:31:49.233Z,39.12
2017-04-04T07:32:49.186Z,32.47
2017-04-04T07:33:47.554Z,36.63
2017-04-04T07:34:46.582Z,35.27
2017-04-04T07:35:44.954Z,34.10
2017-04-04T07:36:43.367Z,35.33
2017-04-04T07:37:41.643Z,39.72
2017-04-04T07:38:39.912Z,36.63
2017-04-04T07:39:38.200Z,40.33
2017-04-04T07:40:36.482Z,39.13
2017-04-04T07:41:34.765Z,40.53
2017-04-04T07:42:33.121Z,40.97
2017-04-04T07:43:31.397Z,34.47
2017-04-04T07:44:29.666Z,33.13
2017-04-04T07:45:27.961Z,37.27
2017-04-04T07:46:26.209Z,36.92
2017-04-04T07:47:24.542Z,33.78
2017-04-04T07:48:22.869Z,35.68
2017-04-04T07:49:21.891Z,35.97
2017-04-04T07:50:20.304Z,32.30
2017-04-04T07:51:19.898Z,37.58
2017-04-04T07:52:18.187Z,34.32
2017-04-04T07:53:17.238Z,39.10
2017-04-04T07:54:15.573Z,36.60
2017-04-04T07:55:13.875Z,35.02
2017-04-04T07:56:12.155Z,42.73
2017-04-04T07:57:11.186Z,37.87
2017-04-04T07:58:09.465Z,38.85
2017-04-04T07:59:07.729Z,34.87
2017-04-04T08:00:06.828Z,34.75
2017-04-04T08:01:05.090Z,36.68
2017-04-04T08:02:03.347Z,41.28
2017-04-04T08:03:01.628Z,36.78
2017-04-04T08:03:59.890Z,36.12
2017-04-04T08:04:58.181Z,37.45
2017-04-04T08:05:56.554Z,38.57
2017-04-04T08:06:54.819Z,33.85
2017-04-04T08:07:53.094Z,34.63
2017-04-04T08:08:51.372Z,34.45
2017-04-04T08:09:49.633Z,33.45
2017-04-04T08:10:48.657Z,35.85
2017-04-04T08:11:47.771Z,36.65
2017-04-04T08:12:46.058Z,37.52
2017-04-04T08:13:45.077Z,36.25
2017-04-04T08:14:44.099Z,33.73
2017-04-04T08:15:43.187Z,37.55
2017-04-04T08:16:41.461Z,29.55
2017-04-04T08:17:40.827Z,29.73
2017-04-04T08:18:39.092Z,28.28
2017-04-04T08:19:37.361Z,29.40
2017-04-04T08:20:35.610Z,30.73
2017-04-04T08:21:33.907Z,30.23
2017-04-04T08:22:32.167Z,29.38
2017-04-04T08:23:30.509Z,31.17
2017-04-04T08:24:28.819Z,37.92
2017-04-04T08:25:27.869Z,29.62
2017-04-04T08:26:26.135Z,29.38
2017-04-04T08:27:24.402Z,33.22
2017-04-04T08:28:22.654Z,27.95
2017-04-04T08:29:21.002Z,26.35
2017-04-04T08:30:20.045Z,27.08
2017-04-04T08:31:18.369Z,27.30
2017-04-04T08:32:16.634Z,32.60
2017-04-04T08:33:14.964Z,30.05
2017-04-04T08:34:14.007Z,27.92
2017-04-04T08:35:12.358Z,30.08
2017-04-04T08:36:10.595Z,29.30
2017-04-04T08:37:08.852Z,28.18
2017-04-04T08:38:07.113Z,30.18
2017-04-04T08:39:06.100Z,27.17
2017-04-04T08:40:04.379Z,28.48
2017-04-04T08:41:02.705Z,26.82
2017-04-04T08:42:00.981Z,29.03
2017-04-04T08:42:59.230Z,25.97
2017-04-04T08:43:58.266Z,28.20
2017-04-04T08:44:57.523Z,30.67
2017-04-04T08:45:55.804Z,25.45
2017-04-04T08:46:54.962Z,24.37
2017-04-04T08:47:53.261Z,22.20
2017-04-04T08:48:51.529Z,25.20
2017-04-04T08:49:49.806Z,29.18
2017-04-04T08:50:48.071Z,26.78
2017-04-04T08:51:47.097Z,22.93
2017-04-04T08:52:46.214Z,23.63
2017-04-04T08:53:44.470Z,20.35
2017-04-04T08:54:43.489Z,24.63
2017-04-04T08:55:41.756Z,22.32
2017-04-04T08:56:40.783Z,18.20
2017-04-04T08:57:39.161Z,23.47
2017-04-04T08:58:37.561Z,22.72
2017-04-04T08:59:35.818Z,22.17
2017-04-04T09:00:34.875Z,20.27
2017-04-04T09:01:33.149Z,20.95
2017-04-04T09:02:31.441Z,20.07
2017-04-04T09:03:29.710Z,14.63
2017-04-04T09:04:28.042Z,15.97
2017-04-04T09:05:26.297Z,18.05
2017-04-04T09:06:24.578Z,15.00
2017-04-04T09:07:22.834Z,17.28
2017-04-04T09:08:21.914Z,17.67
2017-04-04T09:09:20.166Z,17.58
2017-04-04T09:10:18.519Z,17.03
2017-04-04T09:11:16.798Z,14.60
2017-04-04T09:12:15.189Z,12.32
2017-04-04T09:13:13.365Z,16.55
2017-04-04T09:14:12.400Z,19.93
2017-04-04T09:15:10.666Z,18.15
2017-04-04T09:16:09.019Z,17.32
2017-04-04T09:17:07.290Z,15.32
2017-04-04T09:18:06.312Z,16.75
2017-04-04T09:19:04.583Z,16.30
2017-04-04T09:20:03.322Z,17.17
2017-04-04T09:21:01.587Z,17.22
2017-04-04T09:22:00.731Z,19.50
2017-04-04T09:22:58.985Z,16.02
2017-04-04T09:23:57.258Z,18.40
2017-04-04T09:24:55.522Z,14.75
2017-04-04T09:25:53.770Z,13.35
2017-04-04T09:26:52.810Z,11.85
2017-04-04T09:27:51.164Z,10.38
2017-04-04T09:28:50.193Z,11.03
2017-04-04T09:29:49.218Z,10.33
2017-04-04T09:30:47.476Z,12.33
2017-04-04T09:31:45.755Z,13.17
2017-04-04T09:32:44.008Z,12.25
2017-04-04T09:33:43.192Z,13.67
2017-04-04T09:34:41.494Z,12.15
2017-04-04T09:35:40.519Z,13.22
2017-04-04T09:36:39.586Z,10.92
2017-04-04T09:37:37.848Z,12.68
2017-04-04T09:38:36.207Z,15.87
2017-04-04T09:39:34.548Z,12.03
2017-04-04T09:40:32.857Z,12.23
2017-04-04T09:41:31.122Z,10.27
2017-04-04T09:42:29.369Z,12.15
2017-04-04T09:43:27.634Z,10.53
2017-04-04T09:44:26.710Z,10.28
2017-04-04T09:45:25.100Z,9.42
2017-04-04T09:46:23.382Z,13.10
2017-04-04T09:47:21.687Z,12.92
2017-04-04T09:48:19.964Z,8.65
2017-04-04T09:49:18.261Z,9.58
2017-04-04T09:50:16.534Z,12.57
2017-04-04T09:51:14.993Z,8.60
2017-04-04T09:52:14.021Z,9.73
2017-04-04T09:53:12.286Z,8.35
2017-04-04T09:54:11.341Z,11.90
2017-04-04T09:55:09.592Z,7.92
2017-04-04T09:56:07.851Z,5.68
2017-04-04T09:57:06.962Z,7.38
2017-04-04T09:58:06.026Z,7.67
2017-04-04T09:59:04.331Z,9.78
2017-04-04T10:00:02.591Z,10.10
2017-04-04T10:01:01.658Z,7.80
2017-04-04T10:01:59.924Z,9.38
2017-04-04T10:02:58.295Z,9.63
2017-04-04T10:03:57.365Z,11.47
2017-04-04T10:04:55.616Z,10.42
2017-04-04T10:05:53.863Z,8.12
2017-04-04T10:06:52.182Z,8.33
2017-04-04T10:07:51.230Z,7.85
2017-04-04T10:08:49.630Z,10.40
2017-04-04T10:09:47.896Z,8.30
2017-04-04T10:10:46.931Z,9.87
2017-04-04T10:11:45.206Z,8.75
2017-04-04T10:12:43.470Z,9.72
2017-04-04T10:13:41.745Z,11.98
2017-04-04T10:14:40.119Z,8.52
2017-04-04T10:15:39.179Z,9.52
2017-04-04T10:16:37.451Z,7.25
2017-04-04T10:17:35.753Z,7.80
2017-04-04T10:18:34.062Z,7.35
2017-04-04T10:19:32.382Z,6.28
2017-04-04T10:20:31.493Z,7.32
2017-04-04T10:21:30.361Z,7.43
2017-04-04T10:22:28.724Z,5.03
2017-04-04T10:23:27.743Z,9.28
2017-04-04T10:24:26.002Z,8.77
2017-04-04T10:25:24.300Z,6.98
2017-04-04T10:26:22.610Z,7.12
2017-04-04T10:27:21.622Z,6.25
2017-04-04T10:28:19.875Z,7.17
2017-04-04T10:29:18.141Z,8.33
2017-04-04T10:30:16.476Z,7.78
2017-04-04T10:31:14.770Z,8.45
2017-04-04T10:32:13.122Z,6.00
2017-04-04T10:33:11.395Z,8.53
2017-04-04T10:34:09.667Z,7.90
2017-04-04T10:35:07.961Z,7.50
2017-04-04T10:36:06.287Z,11.53
2017-04-04T10:37:04.541Z,7.18
2017-04-04T10:38:02.964Z,6.33
2017-04-04T10:39:02.001Z,8.42
2017-04-04T10:40:00.308Z,5.80
2017-04-04T10:40:58.579Z,6.48
2017-04-04T10:41:56.893Z,6.50
2017-04-04T10:42:55.925Z,7.00
2017-04-04T10:43:55.077Z,5.93
2017-04-04T10:44:53.342Z,10.63
2017-04-04T10:45:52.373Z,6.35
2017-04-04T10:46:50.649Z,9.00
2017-04-04T10:47:48.899Z,7.30
2017-04-04T10:48:47.929Z,10.47
2017-04-04T10:49:46.310Z,11.10
2017-04-04T10:50:44.602Z,11.90
2017-04-04T10:51:42.859Z,8.67
2017-04-04T10:52:41.129Z,8.07
2017-04-04T10:53:39.393Z,9.98
2017-04-04T10:54:37.732Z,8.58
2017-04-04T10:55:36.856Z,7.93
2017-04-04T10:56:35.134Z,6.90
2017-04-04T10:57:34.150Z,7.10
2017-04-04T10:58:32.458Z,7.52
2017-04-04T10:59:30.742Z,8.53
2017-04-04T11:00:29.043Z,5.03
2017-04-04T11:01:27.403Z,6.25
2017-04-04T11:02:25.902Z,6.83
2017-04-04T11:03:24.936Z,5.75
2017-04-04T11:04:23.216Z,5.03
2017-04-04T11:05:21.482Z,4.10
2017-04-04T11:06:19.732Z,6.42
2017-04-04T11:07:18.098Z,5.90
2017-04-04T11:08:17.146Z,5.20
2017-04-04T11:09:16.202Z,3.95
2017-04-04T11:10:14.462Z,5.70
2017-04-04T11:11:12.766Z,4.77
2017-04-04T11:12:11.030Z,5.10
2017-04-04T11:13:09.373Z,7.02
2017-04-04T11:14:07.685Z,4.42
2017-04-04T11:15:05.983Z,3.65
2017-04-04T11:16:04.250Z,4.57
2017-04-04T11:17:02.526Z,4.27
2017-04-04T11:18:00.807Z,7.05
2017-04-04T11:18:59.229Z,3.93
2017-04-04T11:19:57.499Z,6.38
2017-04-04T11:20:56.509Z,3.97
2017-04-04T11:21:55.633Z,5.27
2017-04-04T11:22:53.902Z,2.53
2017-04-04T11:23:52.177Z,4.33
2017-04-04T11:24:50.549Z,3.37
2017-04-04T11:25:49.574Z,5.43
2017-04-04T11:26:47.839Z,2.83
2017-04-04T11:27:46.103Z,2.05
2017-04-04T11:28:45.165Z,2.22
2017-04-04T11:29:44.214Z,3.12
2017-04-04T11:30:42.557Z,4.07
2017-04-04T11:31:40.850Z,3.52
2017-04-04T11:32:39.099Z,4.25
2017-04-04T11:33:38.150Z,4.27
2017-04-04T11:34:37.250Z,2.42
2017-04-04T11:35:35.514Z,4.88
2017-04-04T11:36:33.894Z,4.58
2017-04-04T11:37:32.251Z,5.90
2017-04-04T11:38:30.512Z,3.40
2017-04-04T11:39:28.778Z,3.87
2017-04-04T11:40:27.877Z,5.50
2017-04-04T11:41:26.555Z,5.45
2017-04-04T11:42:24.863Z,5.02
2017-04-04T11:43:23.634Z,3.85
2017-04-04T11:44:22.726Z,3.72
2017-04-04T11:45:20.986Z,3.72
2017-04-04T11:46:19.267Z,3.90
2017-04-04T11:47:18.405Z,4.50
2017-04-04T11:48:16.685Z,3.50
2017-04-04T11:49:15.729Z,4.60
2017-04-04T11:50:14.004Z,3.63
2017-04-04T11:51:12.279Z,3.32
2017-04-04T11:52:10.550Z,3.43
2017-04-04T11:53:09.674Z,5.60
2017-04-04T11:54:08.720Z,4.23
2017-04-04T11:55:07.755Z,4.85
2017-04-04T11:56:06.071Z,4.77
2017-04-04T11:57:04.345Z,3.62
2017-04-04T11:58:02.643Z,4.42
2017-04-04T11:59:02.813Z,4.42
2017-04-04T12:00:01.115Z,3.58
2017-04-04T12:00:59.481Z,3.82
2017-04-04T12:01:57.763Z,3.73
2017-04-04T12:02:56.011Z,4.27
2017-04-04T12:03:55.105Z,2.98
2017-04-04T12:04:53.434Z,3.82
2017-04-04T12:05:51.701Z,5.12
2017-04-04T12:06:49.980Z,6.35
2017-04-04T12:07:48.254Z,4.50
2017-04-04T12:08:46.535Z,4.95
2017-04-04T12:09:44.803Z,6.82
2017-04-04T12:10:43.174Z,4.52
2017-04-04T12:11:41.474Z,6.95
2017-04-04T12:12:39.746Z,3.68
2017-04-04T12:13:38.019Z,3.65
2017-04-04T12:14:36.296Z,4.48
2017-04-04T12:15:35.368Z,5.10
2017-04-04T12:16:33.743Z,4.85
2017-04-04T12:17:32.001Z,5.25
2017-04-04T12:18:31.046Z,4.15
2017-04-04T12:19:29.305Z,5.07
2017-04-04T12:20:27.597Z,4.87
2017-04-04T12:21:25.894Z,3.90
2017-04-04T12:22:24.261Z,3.88
2017-04-04T12:23:22.534Z,4.80
2017-04-04T12:24:20.819Z,4.57
2017-04-04T12:25:19.099Z,4.98
2017-04-04T12:26:17.366Z,4.83
2017-04-04T12:27:15.713Z,4.05
2017-04-04T12:28:14.053Z,6.73
2017-04-04T12:29:12.320Z,5.80
2017-04-04T12:30:10.618Z,5.50
2017-04-04T12:31:08.885Z,3.52
2017-04-04T12:32:07.172Z,3.90
2017-04-04T12:33:05.433Z,3.86
2017-04-04T12:34:03.790Z,4.13
2017-04-04T12:35:02.058Z,3.90
2017-04-04T12:36:00.348Z,5.33
2017-04-04T12:36:58.618Z,5.72
2017-04-04T12:37:56.898Z,4.14
2017-04-04T12:38:55.213Z,5.70